createdAt,value
2023-01-30T21:01:24.320Z,101716.94
2023-01-30T21:03:53.216Z,101713.69
2023-01-30T21:06:42.500Z,101717.53
2023-01-30T21:09:13.740Z,101723.38
2023-01-30T21:11:40.492Z,101708.75
2023-01-30T21:14:07.570Z,101708.75
2023-01-30T21:16:35.648Z,101713.16
2023-01-30T21:19:05.549Z,101711.94
2023-01-30T21:21:33.031Z,101711.84
2023-01-30T21:24:02.485Z,101713.72
2023-01-30T21:26:31.837Z,101700.69
2023-01-30T21:29:01.166Z,101706.13
2023-01-30T21:31:30.978Z,101708.28
2023-01-30T21:33:59.506Z,101723.66
2023-01-30T21:36:27.571Z,101705.50
2023-01-30T21:39:13.674Z,101709.38
2023-01-30T21:42:01.136Z,101700.59
2023-01-30T21:44:33.433Z,101685.78
2023-01-30T21:46:59.981Z,101698.22
2023-01-30T21:49:26.780Z,101687.00
2023-01-30T21:51:54.462Z,101683.72
2023-01-30T21:54:21.899Z,101674.34
2023-01-30T21:56:49.554Z,101687.59
2023-01-30T21:59:16.758Z,101673.81
2023-01-30T22:01:43.878Z,101680.13
2023-01-30T22:04:16.642Z,101663.31
2023-01-30T22:06:43.813Z,101659.44
2023-01-30T22:09:14.458Z,101659.97
2023-01-30T22:11:41.485Z,101651.38
2023-01-30T22:14:08.432Z,101652.72
2023-01-30T22:16:35.147Z,101635.88
2023-01-30T22:19:04.736Z,101637.00
2023-01-30T22:21:35.149Z,101645.59
2023-01-30T22:24:03.482Z,101649.44
2023-01-30T22:26:30.482Z,101651.69
2023-01-30T22:28:59.259Z,101653.94
2023-01-30T22:31:28.386Z,101648.44
2023-01-30T22:33:56.485Z,101647.28
2023-01-30T22:36:24.743Z,101643.44
2023-01-30T22:38:52.718Z,101647.81
2023-01-30T22:41:24.868Z,101642.28
2023-01-30T22:43:57.149Z,101643.13
2023-01-30T22:46:25.496Z,101639.53
2023-01-30T22:48:52.853Z,101629.66
2023-01-30T22:51:28.511Z,101625.25
2023-01-30T22:53:58.087Z,101632.50
2023-01-30T22:56:37.075Z,101633.09
2023-01-30T22:59:04.572Z,101631.97
2023-01-30T23:01:38.107Z,101623.69
2023-01-30T23:04:07.721Z,101630.03
2023-01-30T23:06:34.534Z,101629.22
2023-01-30T23:09:02.396Z,101620.94
2023-01-30T23:11:44.437Z,101610.47
2023-01-30T23:14:14.359Z,101619.50
2023-01-30T23:16:43.598Z,101608.22
2023-01-30T23:19:12.344Z,101611.47
2023-01-30T23:21:45.398Z,101613.94
2023-01-30T23:24:20.383Z,101603.72
2023-01-30T23:26:51.256Z,101603.72
2023-01-30T23:29:19.980Z,101596.59
2023-01-30T23:31:47.853Z,101597.41
2023-01-30T23:34:19.082Z,101593.84
2023-01-30T23:36:46.502Z,101596.59
2023-01-30T23:39:14.349Z,101600.78
2023-01-30T23:41:42.233Z,101599.94
2023-01-30T23:44:09.585Z,101579.00
2023-01-30T23:46:39.090Z,101579.00
2023-01-30T23:49:11.653Z,101581.47
2023-01-30T23:51:40.784Z,101571.28
2023-01-30T23:54:08.517Z,101572.91
2023-01-30T23:56:37.647Z,101571.28
2023-01-30T23:59:05.182Z,101558.84
